Time;durP1;ratioP1;P1;durP2;ratioP2;P2;SDS_P1;SDS_P2;PMS_P1;PMS_P2;Temp;Humidity;BMP_temperature;BMP_pressure;BME280_temperature;BME280_humidity;BME280_pressure;Samples;Min_cycle;Max_cycle;Signal;HPM_P1;HPM_P2
2022/06/12 14:58:46;;;;;;;8.85;8.25;;;50.00;16.30;;;41.19;13.55;95791.94;5096775;27;20607;-57
2022/06/12 15:01:18;;;;;;;8.93;8.43;;;50.00;15.00;;;41.37;12.87;95786.38;5069384;28;20052;-58
2022/06/12 15:03:45;;;;;;;9.18;8.68;;;50.70;14.20;;;41.73;12.85;95782.09;5061631;28;20028;-58
2022/06/12 15:06:12;;;;;;;9.35;8.77;;;51.50;13.80;;;41.97;12.61;95776.69;5057628;28;20021;-57
2022/06/12 15:08:42;;;;;;;8.98;8.48;;;52.30;13.40;;;42.04;12.89;95779.16;5029703;28;20030;-58
2022/06/12 15:11:23;;;;;;;10.07;9.50;;;53.10;13.00;;;42.29;12.22;95766.13;5029569;28;20379;-58
2022/06/12 15:13:54;;;;;;;10.77;10.07;;;53.80;12.70;;;41.98;12.56;95769.84;5044693;28;20080;-59
2022/06/12 15:16:22;;;;;;;11.40;10.80;;;54.40;12.40;;;42.17;12.83;95767.03;5075197;22;20048;-57
2022/06/12 15:18:48;;;;;;;11.23;10.63;;;54.90;12.30;;;42.24;12.76;95761.09;5066714;28;20036;-56
2022/06/12 15:21:25;;;;;;;11.50;10.75;;;55.40;12.60;;;42.27;12.85;95760.16;5067025;28;20139;-55
2022/06/12 15:23:51;;;;;;;13.40;12.70;;;55.90;11.90;;;41.95;13.48;95756.03;5082168;28;20501;-54
2022/06/12 15:31:59;;;;;;;15.82;14.75;;;57.60;11.50;;;42.32;13.04;95759.59;5076284;28;20035;-55
2022/06/12 15:34:26;;;;;;;18.15;17.15;;;58.30;11.30;;;42.38;12.58;95754.91;5083702;28;20017;-54
2022/06/12 15:36:52;;;;;;;19.05;17.85;;;58.90;11.00;;;42.65;12.08;95742.81;5084229;28;20025;-56
2022/06/12 15:39:21;;;;;;;21.77;20.67;;;59.40;10.70;;;42.54;12.78;95750.97;5067708;28;20419;-54
2022/06/12 15:41:46;;;;;;;22.42;21.30;;;60.00;10.60;;;42.56;12.67;95744.88;5084249;28;20057;-57
2022/06/12 15:44:15;;;;;;;24.80;23.17;;;60.30;10.50;;;42.92;12.35;95749.59;5065144;28;20025;-52
2022/06/12 15:46:40;;;;;;;25.83;24.48;;;60.50;10.40;;;43.02;12.18;95745.47;5048868;28;20041;-52
2022/06/12 15:49:10;;;;;;;24.75;23.45;;;60.60;10.30;;;42.87;12.07;95742.59;5067408;28;20028;-52
2022/06/12 15:51:36;;;;;;;22.88;21.67;;;60.60;10.10;;;43.09;11.66;95738.75;5068692;28;20395;-52
2022/06/12 15:54:02;;;;;;;21.95;20.80;;;60.50;10.00;;;43.15;12.48;95737.66;5067281;28;20025;-54
2022/06/12 15:56:27;;;;;;;19.80;18.73;;;60.50;10.10;;;42.91;13.85;95729.22;5057330;28;20048;-53
2022/06/12 15:58:53;;;;;;;18.80;17.80;;;60.40;10.30;;;43.08;13.83;95728.81;5066200;28;20037;-54
2022/06/12 16:01:30;;;;;;;17.13;16.23;;;60.10;10.50;;;42.86;12.67;95727.06;5067427;28;20025;-53
2022/06/12 16:03:59;;;;;;;18.95;17.92;;;60.00;10.30;;;42.46;12.61;95724.53;5067691;28;20035;-51
2022/06/12 16:06:25;;;;;;;17.00;16.13;;;59.80;10.10;;;42.22;12.36;95716.06;5066981;28;20028;-51
2022/06/12 16:08:51;;;;;;;15.55;14.68;;;59.60;10.00;;;42.22;12.66;95713.25;5061562;28;20032;-54
2022/06/12 16:11:28;;;;;;;16.25;15.35;;;59.50;9.90;;;42.12;14.39;95715.28;5054002;28;20021;-51
2022/06/12 16:13:58;;;;;;;14.15;13.45;;;59.50;10.30;;;41.60;14.21;95712.38;5054080;28;20025;-51
2022/06/12 16:16:23;;;;;;;;;;;59.30;10.20;;;41.90;14.96;95707.09;5069482;28;20083;-52
2022/06/12 16:18:49;;;;;;;16.08;15.18;;;59.30;10.60;;;41.55;13.31;95701.03;5054083;28;19947;-54
2022/06/12 16:21:18;;;;;;;14.90;14.10;;;59.30;10.20;;;41.23;13.53;95703.16;5053588;28;20047;-52
2022/06/12 16:23:43;;;;;;;14.83;14.03;;;59.20;10.10;;;41.29;13.75;95689.34;5058810;28;20033;-53
2022/06/12 16:26:10;;;;;;;14.85;14.05;;;59.10;10.10;;;41.54;12.58;95689.06;5052449;28;20393;-58
2022/06/12 16:28:36;;;;;;;13.55;12.85;;;59.10;9.90;;;41.51;12.98;95683.66;5069221;28;20586;-54
2022/06/12 16:31:04;;;;;;;15.55;14.75;;;59.10;9.90;;;41.89;12.90;95676.81;5069283;28;20498;-54
2022/06/12 16:33:32;;;;;;;11.80;11.20;;;59.10;9.90;;;41.73;13.39;95678.66;5053613;28;20376;-52
2022/06/12 16:36:09;;;;;;;12.70;12.00;;;59.10;9.90;;;41.39;13.97;95686.09;5069108;28;20115;-54
2022/06/12 16:38:36;;;;;;;13.93;13.13;;;59.10;10.10;;;40.96;14.20;95684.31;5053098;28;20090;-57
2022/06/12 16:41:04;;;;;;;13.30;12.40;;;58.90;10.10;;;40.75;14.32;95683.19;5069200;28;20606;-53
2022/06/12 16:43:36;;;;;;;12.30;11.60;;;58.80;10.10;;;40.77;14.31;95680.69;5053379;28;20388;-52
2022/06/12 16:46:04;;;;;;;11.63;10.90;;;58.50;10.00;;;40.89;15.05;95682.59;5069056;28;20079;-50
2022/06/12 16:48:30;;;;;;;11.95;11.27;;;58.40;10.20;;;40.85;14.78;95686.78;5053138;28;20025;-52
2022/06/12 16:51:11;;;;;;;10.30;9.70;;;58.30;10.30;;;40.58;14.60;95685.41;5053279;28;20032;-55
2022/06/12 16:53:36;;;;;;;10.57;9.98;;;58.20;10.30;;;40.37;14.89;95680.69;5054215;28;20039;-54
2022/06/12 16:56:09;;;;;;;10.52;9.82;;;58.20;10.20;;;40.12;15.62;95684.41;5053388;28;20033;-57
2022/06/12 16:58:38;;;;;;;11.02;10.43;;;58.20;10.40;;;40.14;15.82;95673.56;5052993;28;20037;-55
2022/06/12 17:01:04;;;;;;;10.32;9.73;;;58.20;10.40;;;40.10;16.03;95678.50;5052052;28;20560;-53
2022/06/12 17:03:32;;;;;;;8.93;8.35;;;58.10;10.50;;;39.97;15.76;95671.00;5051818;28;20163;-52
2022/06/12 17:05:57;;;;;;;9.82;9.13;;;58.10;10.50;;;39.96;15.91;95677.03;5053016;28;20025;-52
2022/06/12 17:08:23;;;;;;;8.30;7.65;;;57.90;10.50;;;39.74;15.65;95668.66;5068204;28;20033;-55
2022/06/12 17:10:49;;;;;;;6.25;5.95;;;57.70;10.40;;;39.05;16.26;95666.66;5053044;28;20049;-53
2022/06/12 17:13:14;;;;;;;4.75;4.30;;;57.10;10.30;;;38.33;16.97;95670.91;5068317;28;20104;-54
2022/06/12 17:15:43;;;;;;;3.58;3.28;;;54.60;10.80;;;37.69;17.84;95673.56;5052696;28;20052;-51
2022/06/12 17:20:59;;;;;;;2.72;2.50;;;49.10;12.80;;;36.14;19.58;95673.78;5052342;28;20118;-50
2022/06/12 17:23:31;;;;;;;3.45;3.08;;;46.70;13.90;;;35.39;21.05;95675.25;5053706;28;20068;-49
2022/06/12 17:25:57;;;;;;;5.55;3.20;;;44.80;14.90;;;34.84;21.79;95668.28;5073276;28;20021;-52
2022/06/12 17:28:23;;;;;;;3.35;2.60;;;43.20;15.70;;;34.27;21.83;95680.22;5067795;28;20064;-51
2022/06/12 17:30:55;;;;;;;4.32;2.55;;;41.90;16.40;;;33.66;22.34;95677.41;5052215;28;20134;-51
2022/06/12 17:33:21;;;;;;;2.30;2.10;;;40.80;17.10;;;33.33;22.76;95682.50;5067819;28;20166;-53
2022/06/12 17:35:47;;;;;;;2.78;2.58;;;39.80;17.60;;;32.86;23.63;95682.13;5051032;28;20466;-54
2022/06/12 17:38:19;;;;;;;2.60;2.40;;;38.90;18.30;;;32.47;23.90;95678.50;5067858;28;20123;-51
2022/06/12 17:40:52;;;;;;;3.45;2.40;;;38.20;18.90;;;32.12;24.51;95682.19;5067668;28;20118;-53
2022/06/12 17:43:18;;;;;;;4.00;2.15;;;37.40;19.40;;;31.60;24.28;95673.78;5052258;28;20082;-49
2022/06/12 17:45:49;;;;;;;4.05;2.40;;;36.80;19.70;;;31.25;25.30;95683.69;5067304;28;20096;-54
2022/06/12 17:48:16;;;;;;;2.58;1.98;;;36.20;20.30;;;31.04;25.75;95689.22;5067474;28;20025;-50
2022/06/12 17:50:42;;;;;;;4.03;2.03;;;35.70;20.70;;;30.67;26.39;95677.41;5051798;28;20052;-53
2022/06/12 17:53:11;;;;;;;5.22;2.10;;;35.20;21.20;;;30.43;26.53;95681.72;5067660;28;20494;-54
2022/06/12 17:55:39;;;;;;;2.50;2.30;;;34.80;21.70;;;30.24;27.49;95686.78;5066712;28;20029;-53
2022/06/12 17:58:05;;;;;;;6.45;2.13;;;34.40;22.10;;;30.01;27.55;95685.13;5052235;28;20036;-53
2022/06/12 18:00:32;;;;;;;2.35;2.15;;;34.00;22.40;;;29.83;28.22;95674.09;5049826;28;20040;-51
2022/06/12 18:02:59;;;;;;;2.50;1.67;;;33.70;22.80;;;29.67;28.62;95681.88;5049534;28;20032;-49
2022/06/12 18:05:25;;;;;;;3.28;2.00;;;33.40;23.60;;;29.49;29.28;95676.28;5046194;28;20422;-54
2022/06/12 18:07:51;;;;;;;3.22;2.05;;;33.20;23.60;;;29.31;29.81;95680.91;5035675;28;20120;-54
2022/06/12 18:10:19;;;;;;;2.65;1.70;;;32.90;24.00;;;29.07;30.63;95672.13;5045732;28;20112;-54
2022/06/12 18:12:50;;;;;;;5.60;2.13;;;32.70;24.40;;;28.86;30.81;95682.91;5030569;28;20083;-52
2022/06/12 18:19:05;;;;;;;1.73;1.63;;;32.30;25.10;;;28.46;31.00;95693.56;5044808;28;20053;-50
2022/06/12 18:20:59;;;;;;;2.13;1.60;;;32.10;25.20;;;28.31;31.43;95683.59;5026766;28;20045;-52
2022/06/12 18:23:25;;;;;;;3.08;2.30;;;31.80;25.30;;;28.17;31.63;95684.22;5047822;28;20480;-49
2022/06/12 18:25:51;;;;;;;2.47;1.90;;;31.70;25.70;;;27.98;31.97;95693.41;5037587;28;20029;-50
2022/06/12 18:28:16;;;;;;;5.40;1.80;;;31.50;26.00;;;27.87;32.71;95689.78;5031495;28;20033;-51
2022/06/12 18:30:43;;;;;;;2.13;1.98;;;31.30;26.30;;;27.65;35.40;95689.50;5046900;28;20385;-50
2022/06/12 18:33:10;;;;;;;5.05;1.60;;;31.10;26.90;;;27.29;36.11;95695.66;5030947;28;20040;-49
2022/06/12 18:35:46;;;;;;;3.15;1.73;;;30.90;27.50;;;26.90;37.18;95696.63;5046802;28;20033;-49
2022/06/12 18:38:16;;;;;;;4.03;1.80;;;30.70;28.20;;;26.52;37.95;95690.19;5046062;28;20079;-48
2022/06/12 18:40:43;;;;;;;2.17;1.55;;;30.30;28.30;;;26.12;38.73;95687.09;5030025;28;20025;-48
2022/06/12 18:43:09;;;;;;;6.10;1.75;;;30.00;28.80;;;25.78;39.15;95686.81;5046514;28;20067;-53
2022/06/12 18:45:36;;;;;;;2.17;1.98;;;29.80;29.20;;;25.58;39.69;95697.72;5046651;28;20033;-51
2022/06/12 18:48:09;;;;;;;1.95;1.67;;;29.40;29.60;;;25.31;40.47;95694.03;5039944;28;20025;-51
2022/06/12 18:50:35;;;;;;;2.67;1.70;;;29.20;30.30;;;25.12;40.19;95702.13;5066648;28;20021;-50
2022/06/12 18:53:01;;;;;;;1.73;1.60;;;28.80;30.20;;;24.94;41.22;95693.56;5066615;28;20107;-51
2022/06/12 18:55:27;;;;;;;1.88;1.25;;;28.60;30.70;;;24.81;41.27;95700.25;5051934;28;20033;-48
2022/06/12 18:57:52;;;;;;;3.50;1.58;;;28.40;31.20;;;24.64;42.71;95696.75;5066378;28;20065;-50
2022/06/12 19:00:26;;;;;;;2.88;1.50;;;28.20;31.80;;;24.48;43.17;95689.75;5066584;28;20044;-52
2022/06/12 19:02:51;;;;;;;3.22;1.60;;;28.00;32.50;;;24.30;42.70;95692.78;5051149;28;20033;-48
2022/06/12 19:05:23;;;;;;;2.85;1.58;;;27.70;32.50;;;24.14;43.07;95697.41;5050739;28;20040;-51
2022/06/12 19:07:48;;;;;;;1.92;1.40;;;27.60;33.00;;;24.02;42.98;95687.38;5051124;28;20108;-48
2022/06/12 19:10:16;;;;;;;3.40;1.45;;;27.40;33.10;;;23.88;42.58;95685.06;5050887;28;20148;-48
2022/06/12 19:12:42;;;;;;;2.50;1.45;;;27.20;33.20;;;23.83;42.47;95679.88;5066307;28;20035;-53
2022/06/12 19:15:12;;;;;;;1.95;1.52;;;27.10;34.00;;;23.76;43.26;95674.25;5066314;28;20061;-53
2022/06/12 19:17:37;;;;;;;1.45;1.33;;;27.00;33.80;;;23.59;43.92;95675.28;5066003;28;20565;-50
2022/06/12 19:20:08;;;;;;;4.57;1.50;;;26.90;34.10;;;23.50;44.56;95680.88;5049536;28;20029;-49
2022/06/12 19:22:34;;;;;;;2.08;1.30;;;26.80;34.60;;;23.45;43.01;95674.91;5065891;28;20082;-51
2022/06/12 19:25:01;;;;;;;3.13;1.30;;;26.60;34.40;;;23.47;41.56;95676.16;5053438;28;20025;-50
2022/06/12 19:27:28;;;;;;;3.13;2.05;;;26.60;34.20;;;23.55;41.33;95680.63;5046180;28;20025;-52
2022/06/12 19:29:54;;;;;;;2.03;1.60;;;26.60;34.10;;;23.59;40.16;95672.56;5029531;28;20033;-50
2022/06/12 19:32:26;;;;;;;3.08;1.35;;;26.50;33.90;;;23.62;42.98;95666.44;5046491;28;20529;-52
2022/06/12 19:34:55;;;;;;;1.75;1.65;;;26.60;34.40;;;23.42;41.98;95668.22;5031121;28;20086;-49
2022/06/12 19:37:21;;;;;;;3.45;2.05;;;26.50;34.40;;;23.44;42.77;95681.44;5030835;28;20076;-53
2022/06/12 19:39:56;;;;;;;2.60;1.33;;;26.50;34.60;;;23.37;41.54;95679.31;5030816;28;20021;-51
2022/06/12 19:42:27;;;;;;;2.80;1.45;;;26.40;34.60;;;23.32;40.77;95699.38;5030869;28;20480;-50
2022/06/12 19:44:53;;;;;;;2.13;1.35;;;26.30;34.30;;;23.31;40.23;95700.50;5048693;28;20108;-50
2022/06/12 19:47:19;;;;;;;1.60;1.10;;;26.30;34.20;;;23.32;39.25;95690.44;5053145;28;20111;-50
2022/06/12 19:49:45;;;;;;;3.03;1.42;;;26.20;33.90;;;23.40;39.09;95703.09;5069933;28;20025;-52
2022/06/12 19:52:10;;;;;;;2.60;1.40;;;26.20;33.80;;;23.47;38.81;95707.94;5052922;28;20033;-48
2022/06/12 19:54:36;;;;;;;1.60;1.15;;;26.20;33.60;;;23.47;38.70;95706.03;5053963;28;20040;-50
2022/06/12 19:57:02;;;;;;;1.83;1.20;;;26.20;33.40;;;23.45;38.51;95702.09;5054097;28;20041;-50
2022/06/12 19:59:31;;;;;;;1.38;1.20;;;26.20;33.30;;;23.45;40.25;95710.22;5069560;28;20029;-51
2022/06/12 20:02:00;;;;;;;2.05;1.30;;;26.20;33.50;;;23.29;41.22;95708.22;5054106;28;20056;-52
2022/06/12 20:07:28;;;;;;;1.88;1.20;;;26.10;33.90;;;22.97;42.71;95707.25;5054063;28;20040;-49
2022/06/12 20:10:01;;;;;;;2.72;1.35;;;26.00;34.20;;;22.72;42.65;95711.88;5054110;28;20021;-49
2022/06/12 20:12:28;;;;;;;2.28;1.23;;;25.90;34.30;;;22.57;43.88;95710.63;5069161;28;20082;-52
2022/06/12 20:14:54;;;;;;;2.58;1.80;;;25.80;34.70;;;22.44;44.72;95713.63;5069283;28;20028;-49
2022/06/12 20:17:24;;;;;;;2.25;1.83;;;25.60;35.10;;;22.29;45.06;95715.09;5053301;28;20474;-51
2022/06/12 20:19:50;;;;;;;2.40;1.67;;;25.50;35.50;;;22.17;45.08;95713.16;5069277;28;20029;-52
2022/06/12 20:22:17;;;;;;;4.07;2.05;;;25.40;35.80;;;21.95;44.91;95704.25;5053684;28;20036;-52
2022/06/12 20:24:46;;;;;;;4.95;2.70;;;25.30;36.00;;;21.91;47.03;95702.53;5068476;28;20116;-49
2022/06/12 20:27:13;;;;;;;2.20;1.75;;;25.20;36.60;;;21.78;47.27;95698.19;5053573;28;20060;-49
2022/06/12 20:29:39;;;;;;;4.65;1.85;;;25.10;36.80;;;21.73;48.09;95693.78;5068910;28;20051;-49
2022/06/12 20:32:10;;;;;;;3.28;2.05;;;25.00;37.30;;;21.62;48.59;95690.69;5053750;28;20033;-51
2022/06/12 20:34:37;;;;;;;3.80;1.65;;;24.90;37.80;;;21.65;49.28;95690.00;5068655;28;20036;-50
2022/06/12 20:37:05;;;;;;;3.20;2.00;;;24.90;38.20;;;21.52;49.46;95669.41;5052161;28;20128;-50
2022/06/12 20:39:38;;;;;;;3.33;2.25;;;24.80;38.60;;;21.53;49.82;95684.56;5035765;28;20112;-50
2022/06/12 20:42:04;;;;;;;4.53;2.25;;;24.80;39.10;;;21.57;48.83;95698.22;5053591;28;20190;-49
2022/06/12 20:44:39;;;;;;;2.40;1.80;;;24.70;38.90;;;21.60;48.77;95724.66;5051805;28;20108;-49
2022/06/12 20:47:08;;;;;;;3.08;1.25;;;24.70;39.30;;;21.74;47.87;95757.69;5039670;28;20030;-54
2022/06/12 20:49:40;;;;;;;3.05;1.58;;;24.70;39.40;;;22.00;46.40;95790.03;5053459;28;20029;-50
2022/06/12 20:52:09;;;;;;;15.60;3.07;;;24.80;39.50;;;22.15;53.92;95826.59;5069575;28;20032;-48
2022/06/12 20:54:35;;;;;;;4.35;2.03;;;24.90;41.70;;;21.76;55.31;95833.28;5066132;28;20029;-50
2022/06/12 20:57:21;;;;;;;6.32;2.58;;;24.60;44.20;;;20.94;61.06;95837.03;5048595;28;20036;-51
2022/06/12 20:59:53;;;;;;;6.85;2.60;;;24.00;47.50;;;20.39;65.65;95835.09;5054269;28;20028;-51
2022/06/12 21:02:25;;;;;;;6.47;3.00;;;23.50;49.10;;;19.87;69.38;95808.91;5054055;28;20033;-50
2022/06/12 21:04:51;;;;;;;9.90;3.10;;;23.10;49.90;;;19.58;72.52;95816.78;5052779;28;20065;-48
2022/06/12 21:07:22;;;;;;;8.90;2.92;;;22.70;51.00;;;19.39;72.65;95800.88;5053786;28;20087;-49
2022/06/12 21:09:51;;;;;;;6.90;3.45;;;22.50;52.20;;;19.06;76.16;95776.97;5053958;28;20060;-47
2022/06/12 21:12:16;;;;;;;8.00;3.65;;;22.20;53.10;;;18.71;77.82;95776.84;5069330;28;20025;-48
2022/06/12 21:14:42;;;;;;;8.02;4.15;;;21.90;53.90;;;18.40;80.12;95778.75;5069258;28;20499;-48
2022/06/12 21:17:22;;;;;;;10.50;4.00;;;21.70;55.20;;;18.31;79.71;95780.59;5067170;22;20080;-50
2022/06/12 21:19:51;;;;;;;7.60;3.55;;;21.50;56.30;;;18.16;79.84;95776.38;5054535;28;20367;-49
2022/06/12 21:22:23;;;;;;;8.10;4.18;;;21.30;56.40;;;17.92;82.16;95784.78;5072508;28;20032;-46
2022/06/12 21:24:49;;;;;;;5.65;3.83;;;21.10;57.40;;;17.85;82.79;95781.72;5055670;28;20024;-49
2022/06/12 21:27:15;;;;;;;6.53;4.07;;;21.00;57.50;;;17.71;82.83;95793.31;5068967;28;20108;-49
2022/06/12 21:29:44;;;;;;;7.88;4.50;;;20.90;58.20;;;17.68;84.19;95791.25;5053439;28;20039;-47
2022/06/12 21:32:10;;;;;;;15.48;4.65;;;20.80;59.00;;;17.61;85.03;95795.44;5053355;28;20495;-51
2022/06/12 21:34:36;;;;;;;7.10;4.80;;;20.70;59.60;;;17.51;86.17;95807.22;5053326;28;20064;-50
2022/06/12 21:37:14;;;;;;;10.25;4.35;;;20.60;60.20;;;17.49;86.30;95809.44;5053211;28;20021;-49
2022/06/12 21:39:43;;;;;;;7.38;5.00;;;20.60;61.40;;;17.46;86.36;95815.44;5068619;28;20033;-46
2022/06/12 21:42:11;;;;;;;12.77;5.13;;;20.60;61.60;;;17.41;86.41;95829.00;5053141;28;20029;-47
2022/06/12 21:44:39;;;;;;;9.35;5.20;;;20.50;61.60;;;17.41;86.56;95837.09;5051746;28;20027;-48
2022/06/12 21:47:05;;;;;;;10.23;5.20;;;20.40;61.90;;;17.35;87.39;95831.00;5051949;28;20103;-51
2022/06/12 21:49:36;;;;;;;8.98;5.18;;;20.40;62.40;;;17.27;87.70;95848.66;5041250;28;20387;-48
2022/06/12 21:54:56;;;;;;;;;;;20.30;63.50;;;17.07;86.49;95849.84;5043529;28;20427;-49
2022/06/12 21:57:24;;;;;;;7.22;4.05;;;20.30;62.00;;;17.11;86.09;95856.25;5051787;28;19913;-48
2022/06/12 21:59:50;;;;;;;8.73;4.47;;;20.30;62.90;;;17.04;85.67;95855.84;5068458;28;20036;-47
2022/06/12 22:02:17;;;;;;;5.45;3.50;;;20.20;63.20;;;16.98;85.44;95850.84;5068298;28;20501;-47
2022/06/12 22:04:45;;;;;;;6.75;4.28;;;20.20;63.80;;;17.03;85.85;95856.16;5052803;28;20478;-47
2022/06/12 22:07:15;;;;;;;8.43;4.38;;;20.20;64.10;;;16.99;86.27;95855.94;5052265;28;20033;-51
2022/06/12 22:09:45;;;;;;;7.13;3.80;;;20.20;64.40;;;16.91;85.96;95845.06;5067596;28;20033;-51
2022/06/12 22:12:13;;;;;;;8.15;4.10;;;20.10;64.70;;;16.88;85.87;95849.94;5067800;28;20025;-47
2022/06/12 22:14:39;;;;;;;10.23;3.72;;;20.10;65.00;;;16.90;85.52;95843.50;5051318;28;20025;-48
2022/06/12 22:17:10;;;;;;;8.25;3.53;;;20.10;65.20;;;16.92;85.98;95839.38;5067728;28;20467;-47
2022/06/12 22:19:40;;;;;;;5.38;4.05;;;20.00;65.50;;;16.94;85.79;95842.59;5051274;28;20032;-47
2022/06/12 22:22:07;;;;;;;6.45;4.03;;;20.00;65.60;;;16.97;86.81;95843.88;5051348;28;20115;-47
2022/06/12 22:24:35;;;;;;;6.70;3.47;;;20.10;65.70;;;16.91;85.96;95847.75;5067955;28;20395;-47
2022/06/12 22:27:04;;;;;;;5.95;3.60;;;20.10;65.90;;;16.91;86.00;95843.19;5067769;28;20471;-47
2022/06/12 22:29:29;;;;;;;8.77;3.92;;;20.10;66.00;;;16.93;85.62;95846.38;5052349;28;20032;-49
